Terminal Aerodrome Forecast
Issued by NWS

Home | Current Version | Previous Version | Text Only | Print | Product List | Glossary On
Versions: 1 2 3 4 5 6 7 8 9 10 11 12 13 14 15 16 17 18
000
FTUS41 KBTV 201734
TAFRUT
TAF
KRUT 201734Z 2018/2118 03003KT P6SM SKC
     FM202100 VRB03KT P6SM SCT020 BKN060
     FM210600 VRB03KT P6SM BKN030
     FM211500 00000KT P6SM BKN020
      AMD LTD TO CLD VIS AND WIND=

USA.gov is the U.S. government's official web portal to all federal, state and local government web resources and services.